sensor_id;sensor_type;location;lat;lon;timestamp;P1;durP1;ratioP1;P2;durP2;ratioP2
20014;SDS011;61787;42.022;23.078;2023-04-01T00:00:00;7.63;;;2.77;;
20014;SDS011;61787;42.022;23.078;2023-04-01T00:01:02;5.53;;;2.67;;
20014;SDS011;61787;42.022;23.078;2023-04-01T00:02:05;8.57;;;2.90;;
20014;SDS011;61787;42.022;23.078;2023-04-01T00:03:07;6.47;;;2.80;;
20014;SDS011;61787;42.022;23.078;2023-04-01T00:04:09;5.53;;;2.60;;
20014;SDS011;61787;42.022;23.078;2023-04-01T00:05:10;4.97;;;2.90;;
20014;SDS011;61787;42.022;23.078;2023-04-01T00:06:13;4.93;;;2.90;;
20014;SDS011;61787;42.022;23.078;2023-04-01T00:07:16;5.63;;;3.00;;
20014;SDS011;61787;42.022;23.078;2023-04-01T00:08:18;4.40;;;2.90;;
20014;SDS011;61787;42.022;23.078;2023-04-01T00:09:19;6.13;;;2.80;;
20014;SDS011;61787;42.022;23.078;2023-04-01T00:10:21;7.57;;;2.60;;
20014;SDS011;61787;42.022;23.078;2023-04-01T00:11:23;6.17;;;2.70;;
20014;SDS011;61787;42.022;23.078;2023-04-01T00:12:25;6.23;;;2.70;;
20014;SDS011;61787;42.022;23.078;2023-04-01T00:13:26;4.87;;;2.87;;
20014;SDS011;61787;42.022;23.078;2023-04-01T00:14:28;6.80;;;2.80;;
20014;SDS011;61787;42.022;23.078;2023-04-01T00:15:30;6.27;;;2.80;;
20014;SDS011;61787;42.022;23.078;2023-04-01T00:16:32;7.33;;;2.77;;
20014;SDS011;61787;42.022;23.078;2023-04-01T00:17:34;5.40;;;2.43;;
20014;SDS011;61787;42.022;23.078;2023-04-01T00:18:36;4.53;;;2.70;;
20014;SDS011;61787;42.022;23.078;2023-04-01T00:19:38;4.43;;;2.40;;
20014;SDS011;61787;42.022;23.078;2023-04-01T00:20:44;6.27;;;2.57;;
20014;SDS011;61787;42.022;23.078;2023-04-01T00:21:49;4.07;;;2.50;;
20014;SDS011;61787;42.022;23.078;2023-04-01T00:22:51;5.87;;;2.30;;
20014;SDS011;61787;42.022;23.078;2023-04-01T00:23:53;10.13;;;2.40;;
20014;SDS011;61787;42.022;23.078;2023-04-01T00:24:54;6.17;;;2.50;;
20014;SDS011;61787;42.022;23.078;2023-04-01T00:25:56;8.27;;;2.70;;
20014;SDS011;61787;42.022;23.078;2023-04-01T00:27:01;3.33;;;2.50;;
20014;SDS011;61787;42.022;23.078;2023-04-01T00:28:03;12.40;;;2.53;;
20014;SDS011;61787;42.022;23.078;2023-04-01T00:29:05;6.50;;;2.50;;
20014;SDS011;61787;42.022;23.078;2023-04-01T00:30:08;4.93;;;2.67;;
20014;SDS011;61787;42.022;23.078;2023-04-01T00:31:10;4.30;;;2.47;;
20014;SDS011;61787;42.022;23.078;2023-04-01T00:32:12;5.03;;;2.60;;
20014;SDS011;61787;42.022;23.078;2023-04-01T00:33:14;8.20;;;2.83;;
20014;SDS011;61787;42.022;23.078;2023-04-01T00:34:16;10.97;;;2.90;;
20014;SDS011;61787;42.022;23.078;2023-04-01T00:35:18;6.53;;;2.57;;
20014;SDS011;61787;42.022;23.078;2023-04-01T00:36:20;6.23;;;2.57;;
20014;SDS011;61787;42.022;23.078;2023-04-01T00:37:23;3.37;;;2.53;;
20014;SDS011;61787;42.022;23.078;2023-04-01T00:38:25;6.40;;;2.33;;
20014;SDS011;61787;42.022;23.078;2023-04-01T00:39:30;6.17;;;2.60;;
20014;SDS011;61787;42.022;23.078;2023-04-01T00:40:34;6.00;;;2.50;;
20014;SDS011;61787;42.022;23.078;2023-04-01T00:41:40;5.70;;;2.67;;
20014;SDS011;61787;42.022;23.078;2023-04-01T00:42:42;6.57;;;2.70;;
20014;SDS011;61787;42.022;23.078;2023-04-01T00:43:45;4.27;;;2.63;;
20014;SDS011;61787;42.022;23.078;2023-04-01T00:44:52;3.77;;;2.40;;
20014;SDS011;61787;42.022;23.078;2023-04-01T00:45:55;6.57;;;2.90;;
20014;SDS011;61787;42.022;23.078;2023-04-01T00:46:57;3.53;;;2.20;;
20014;SDS011;61787;42.022;23.078;2023-04-01T00:47:59;3.60;;;2.40;;
20014;SDS011;61787;42.022;23.078;2023-04-01T00:49:06;6.03;;;2.87;;
20014;SDS011;61787;42.022;23.078;2023-04-01T00:50:07;6.60;;;2.50;;
20014;SDS011;61787;42.022;23.078;2023-04-01T00:51:11;6.37;;;3.00;;
20014;SDS011;61787;42.022;23.078;2023-04-01T00:52:31;5.87;;;2.63;;
20014;SDS011;61787;42.022;23.078;2023-04-01T00:53:34;7.20;;;2.90;;
20014;SDS011;61787;42.022;23.078;2023-04-01T00:54:41;9.43;;;2.77;;
20014;SDS011;61787;42.022;23.078;2023-04-01T00:55:49;4.17;;;2.80;;
20014;SDS011;61787;42.022;23.078;2023-04-01T00:57:41;6.83;;;2.70;;
20014;SDS011;61787;42.022;23.078;2023-04-01T00:58:23;6.03;;;2.53;;
20014;SDS011;61787;42.022;23.078;2023-04-01T00:59:30;4.43;;;2.70;;
20014;SDS011;61787;42.022;23.078;2023-04-01T01:00:35;7.10;;;2.90;;
20014;SDS011;61787;42.022;23.078;2023-04-01T01:01:38;11.10;;;3.00;;
20014;SDS011;61787;42.022;23.078;2023-04-01T01:02:41;7.97;;;2.57;;
20014;SDS011;61787;42.022;23.078;2023-04-01T01:03:44;6.00;;;2.83;;
20014;SDS011;61787;42.022;23.078;2023-04-01T01:04:46;7.03;;;2.70;;
20014;SDS011;61787;42.022;23.078;2023-04-01T01:10:12;5.17;;;2.80;;
20014;SDS011;61787;42.022;23.078;2023-04-01T01:11:22;7.10;;;2.60;;
20014;SDS011;61787;42.022;23.078;2023-04-01T01:12:48;4.40;;;2.77;;
20014;SDS011;61787;42.022;23.078;2023-04-01T01:15:22;7.63;;;2.57;;
20014;SDS011;61787;42.022;23.078;2023-04-01T01:16:28;5.17;;;2.67;;
20014;SDS011;61787;42.022;23.078;2023-04-01T01:17:47;7.33;;;2.50;;
20014;SDS011;61787;42.022;23.078;2023-04-01T01:27:35;8.10;;;2.50;;
20014;SDS011;61787;42.022;23.078;2023-04-01T01:31:23;3.93;;;2.77;;
20014;SDS011;61787;42.022;23.078;2023-04-01T01:36:22;5.57;;;2.37;;
20014;SDS011;61787;42.022;23.078;2023-04-01T01:37:32;7.77;;;2.80;;
20014;SDS011;61787;42.022;23.078;2023-04-01T01:38:34;10.10;;;2.83;;
20014;SDS011;61787;42.022;23.078;2023-04-01T01:39:37;11.60;;;2.90;;
20014;SDS011;61787;42.022;23.078;2023-04-01T01:40:41;5.37;;;2.50;;
20014;SDS011;61787;42.022;23.078;2023-04-01T01:41:46;5.50;;;2.60;;
20014;SDS011;61787;42.022;23.078;2023-04-01T01:42:51;6.47;;;2.63;;
20014;SDS011;61787;42.022;23.078;2023-04-01T01:43:56;6.77;;;2.70;;
20014;SDS011;61787;42.022;23.078;2023-04-01T01:44:59;10.33;;;2.83;;
20014;SDS011;61787;42.022;23.078;2023-04-01T01:46:13;7.90;;;2.70;;
20014;SDS011;61787;42.022;23.078;2023-04-01T01:47:19;4.20;;;2.67;;
20014;SDS011;61787;42.022;23.078;2023-04-01T01:48:23;4.67;;;2.20;;
20014;SDS011;61787;42.022;23.078;2023-04-01T01:49:27;5.20;;;3.03;;
20014;SDS011;61787;42.022;23.078;2023-04-01T01:50:31;10.43;;;2.93;;
20014;SDS011;61787;42.022;23.078;2023-04-01T01:51:34;8.17;;;2.90;;
20014;SDS011;61787;42.022;23.078;2023-04-01T01:52:36;7.63;;;2.97;;
20014;SDS011;61787;42.022;23.078;2023-04-01T01:53:38;6.90;;;2.80;;
20014;SDS011;61787;42.022;23.078;2023-04-01T01:54:49;4.87;;;2.60;;
20014;SDS011;61787;42.022;23.078;2023-04-01T01:55:55;6.13;;;2.73;;
20014;SDS011;61787;42.022;23.078;2023-04-01T01:57:06;6.53;;;2.80;;
20014;SDS011;61787;42.022;23.078;2023-04-01T01:58:17;7.67;;;2.67;;
20014;SDS011;61787;42.022;23.078;2023-04-01T01:59:23;7.57;;;3.43;;
20014;SDS011;61787;42.022;23.078;2023-04-01T02:00:26;5.93;;;2.73;;
20014;SDS011;61787;42.022;23.078;2023-04-01T02:01:29;7.53;;;2.77;;
20014;SDS011;61787;42.022;23.078;2023-04-01T02:02:34;6.67;;;2.60;;
20014;SDS011;61787;42.022;23.078;2023-04-01T02:03:36;6.87;;;2.40;;
20014;SDS011;61787;42.022;23.078;2023-04-01T02:04:41;7.53;;;2.63;;
20014;SDS011;61787;42.022;23.078;2023-04-01T02:05:45;6.37;;;2.80;;
20014;SDS011;61787;42.022;23.078;2023-04-01T02:07:02;6.17;;;2.60;;
20014;SDS011;61787;42.022;23.078;2023-04-01T02:08:41;5.40;;;2.60;;
20014;SDS011;61787;42.022;23.078;2023-04-01T02:09:45;5.87;;;2.60;;
20014;SDS011;61787;42.022;23.078;2023-04-01T02:10:51;8.27;;;2.57;;
20014;SDS011;61787;42.022;23.078;2023-04-01T02:12:03;7.00;;;2.80;;
20014;SDS011;61787;42.022;23.078;2023-04-01T02:13:13;4.50;;;2.30;;
20014;SDS011;61787;42.022;23.078;2023-04-01T02:14:23;4.33;;;2.37;;
20014;SDS011;61787;42.022;23.078;2023-04-01T02:15:29;6.13;;;2.40;;
20014;SDS011;61787;42.022;23.078;2023-04-01T02:16:36;6.63;;;2.70;;
20014;SDS011;61787;42.022;23.078;2023-04-01T02:17:45;5.83;;;2.87;;
20014;SDS011;61787;42.022;23.078;2023-04-01T02:18:50;4.97;;;2.47;;
20014;SDS011;61787;42.022;23.078;2023-04-01T02:19:59;6.27;;;2.60;;
20014;SDS011;61787;42.022;23.078;2023-04-01T02:21:05;5.80;;;2.50;;
20014;SDS011;61787;42.022;23.078;2023-04-01T02:22:11;5.37;;;2.90;;
20014;SDS011;61787;42.022;23.078;2023-04-01T02:23:17;5.67;;;2.87;;
20014;SDS011;61787;42.022;23.078;2023-04-01T02:24:19;6.47;;;2.67;;
20014;SDS011;61787;42.022;23.078;2023-04-01T02:25:24;5.87;;;2.47;;
20014;SDS011;61787;42.022;23.078;2023-04-01T02:26:29;7.07;;;2.53;;
20014;SDS011;61787;42.022;23.078;2023-04-01T02:27:31;3.27;;;2.57;;
20014;SDS011;61787;42.022;23.078;2023-04-01T02:28:33;4.93;;;2.60;;
20014;SDS011;61787;42.022;23.078;2023-04-01T02:29:38;6.00;;;2.50;;
20014;SDS011;61787;42.022;23.078;2023-04-01T02:30:40;6.33;;;2.60;;
20014;SDS011;61787;42.022;23.078;2023-04-01T02:31:44;8.33;;;3.20;;
20014;SDS011;61787;42.022;23.078;2023-04-01T02:32:46;9.87;;;2.93;;
20014;SDS011;61787;42.022;23.078;2023-04-01T02:33:48;5.67;;;2.80;;
20014;SDS011;61787;42.022;23.078;2023-04-01T02:34:50;7.83;;;2.63;;
20014;SDS011;61787;42.022;23.078;2023-04-01T02:35:53;5.87;;;2.50;;
20014;SDS011;61787;42.022;23.078;2023-04-01T02:36:54;6.37;;;2.13;;
20014;SDS011;61787;42.022;23.078;2023-04-01T02:37:57;9.37;;;3.00;;
20014;SDS011;61787;42.022;23.078;2023-04-01T02:39:00;6.97;;;2.70;;
20014;SDS011;61787;42.022;23.078;2023-04-01T02:40:04;9.33;;;3.17;;
20014;SDS011;61787;42.022;23.078;2023-04-01T02:41:11;6.67;;;3.07;;
20014;SDS011;61787;42.022;23.078;2023-04-01T02:42:13;11.03;;;2.90;;
20014;SDS011;61787;42.022;23.078;2023-04-01T02:43:15;9.93;;;3.40;;
20014;SDS011;61787;42.022;23.078;2023-04-01T02:44:17;5.77;;;2.80;;
20014;SDS011;61787;42.022;23.078;2023-04-01T02:45:19;7.47;;;2.77;;
20014;SDS011;61787;42.022;23.078;2023-04-01T02:46:20;5.10;;;2.40;;
20014;SDS011;61787;42.022;23.078;2023-04-01T02:47:22;5.83;;;2.60;;
20014;SDS011;61787;42.022;23.078;2023-04-01T02:48:24;9.27;;;2.80;;
20014;SDS011;61787;42.022;23.078;2023-04-01T02:49:25;7.43;;;2.90;;
20014;SDS011;61787;42.022;23.078;2023-04-01T02:50:27;9.27;;;3.00;;
20014;SDS011;61787;42.022;23.078;2023-04-01T02:51:28;5.57;;;2.90;;
20014;SDS011;61787;42.022;23.078;2023-04-01T02:52:32;7.40;;;2.70;;
20014;SDS011;61787;42.022;23.078;2023-04-01T02:53:34;9.40;;;2.80;;
20014;SDS011;61787;42.022;23.078;2023-04-01T02:54:36;8.27;;;2.77;;
20014;SDS011;61787;42.022;23.078;2023-04-01T02:55:37;6.73;;;2.80;;
20014;SDS011;61787;42.022;23.078;2023-04-01T02:56:39;8.60;;;3.13;;
20014;SDS011;61787;42.022;23.078;2023-04-01T02:57:41;6.33;;;2.30;;
20014;SDS011;61787;42.022;23.078;2023-04-01T02:58:42;4.87;;;2.40;;
20014;SDS011;61787;42.022;23.078;2023-04-01T02:59:44;6.10;;;3.07;;
20014;SDS011;61787;42.022;23.078;2023-04-01T03:00:45;3.90;;;2.63;;
20014;SDS011;61787;42.022;23.078;2023-04-01T03:01:47;5.70;;;2.70;;
20014;SDS011;61787;42.022;23.078;2023-04-01T03:02:49;6.30;;;2.70;;
20014;SDS011;61787;42.022;23.078;2023-04-01T03:03:50;6.10;;;3.20;;
20014;SDS011;61787;42.022;23.078;2023-04-01T03:04:52;5.70;;;2.80;;
20014;SDS011;61787;42.022;23.078;2023-04-01T03:05:54;4.60;;;2.90;;
20014;SDS011;61787;42.022;23.078;2023-04-01T03:06:57;7.37;;;3.20;;
20014;SDS011;61787;42.022;23.078;2023-04-01T03:07:59;7.40;;;2.50;;
20014;SDS011;61787;42.022;23.078;2023-04-01T03:09:00;7.03;;;2.40;;
20014;SDS011;61787;42.022;23.078;2023-04-01T03:10:02;7.47;;;2.57;;
20014;SDS011;61787;42.022;23.078;2023-04-01T03:11:04;7.00;;;2.60;;
20014;SDS011;61787;42.022;23.078;2023-04-01T03:12:06;5.87;;;2.57;;
20014;SDS011;61787;42.022;23.078;2023-04-01T03:13:07;8.43;;;2.60;;
20014;SDS011;61787;42.022;23.078;2023-04-01T03:14:09;4.00;;;2.80;;
20014;SDS011;61787;42.022;23.078;2023-04-01T03:15:11;6.93;;;2.53;;
20014;SDS011;61787;42.022;23.078;2023-04-01T03:16:16;4.63;;;2.60;;
20014;SDS011;61787;42.022;23.078;2023-04-01T03:17:17;7.73;;;3.10;;
20014;SDS011;61787;42.022;23.078;2023-04-01T03:18:19;6.23;;;3.30;;
20014;SDS011;61787;42.022;23.078;2023-04-01T03:19:21;7.33;;;3.60;;
20014;SDS011;61787;42.022;23.078;2023-04-01T03:20:22;8.77;;;3.37;;
20014;SDS011;61787;42.022;23.078;2023-04-01T03:21:24;8.90;;;3.53;;
20014;SDS011;61787;42.022;23.078;2023-04-01T03:22:26;9.70;;;3.57;;
20014;SDS011;61787;42.022;23.078;2023-04-01T03:23:27;6.53;;;3.33;;
20014;SDS011;61787;42.022;23.078;2023-04-01T03:24:29;6.77;;;3.20;;
20014;SDS011;61787;42.022;23.078;2023-04-01T03:25:30;7.77;;;3.30;;
20014;SDS011;61787;42.022;23.078;2023-04-01T03:26:32;6.13;;;3.03;;
20014;SDS011;61787;42.022;23.078;2023-04-01T03:27:34;9.67;;;3.43;;
20014;SDS011;61787;42.022;23.078;2023-04-01T03:28:36;9.13;;;3.60;;
20014;SDS011;61787;42.022;23.078;2023-04-01T03:29:38;6.33;;;2.70;;
20014;SDS011;61787;42.022;23.078;2023-04-01T03:30:40;6.17;;;3.20;;
20014;SDS011;61787;42.022;23.078;2023-04-01T03:31:41;5.73;;;2.40;;
20014;SDS011;61787;42.022;23.078;2023-04-01T03:32:43;6.63;;;2.67;;
20014;SDS011;61787;42.022;23.078;2023-04-01T03:33:45;5.77;;;2.60;;
20014;SDS011;61787;42.022;23.078;2023-04-01T03:34:47;5.73;;;2.70;;
20014;SDS011;61787;42.022;23.078;2023-04-01T03:35:48;7.90;;;3.37;;
20014;SDS011;61787;42.022;23.078;2023-04-01T03:36:53;5.87;;;2.57;;
20014;SDS011;61787;42.022;23.078;2023-04-01T03:37:55;7.37;;;3.00;;
20014;SDS011;61787;42.022;23.078;2023-04-01T03:38:57;7.67;;;3.07;;
20014;SDS011;61787;42.022;23.078;2023-04-01T03:39:58;7.40;;;2.80;;
20014;SDS011;61787;42.022;23.078;2023-04-01T03:41:00;5.90;;;2.73;;
20014;SDS011;61787;42.022;23.078;2023-04-01T03:42:02;5.13;;;2.97;;
20014;SDS011;61787;42.022;23.078;2023-04-01T03:43:03;5.57;;;3.00;;
20014;SDS011;61787;42.022;23.078;2023-04-01T03:44:09;9.83;;;3.80;;
20014;SDS011;61787;42.022;23.078;2023-04-01T03:45:11;10.90;;;3.70;;
20014;SDS011;61787;42.022;23.078;2023-04-01T03:46:19;7.63;;;3.20;;
20014;SDS011;61787;42.022;23.078;2023-04-01T03:47:21;6.57;;;3.03;;
20014;SDS011;61787;42.022;23.078;2023-04-01T03:48:23;7.03;;;3.40;;
20014;SDS011;61787;42.022;23.078;2023-04-01T03:49:24;7.87;;;3.30;;
20014;SDS011;61787;42.022;23.078;2023-04-01T03:50:26;7.03;;;3.13;;
20014;SDS011;61787;42.022;23.078;2023-04-01T03:51:29;7.07;;;3.20;;
20014;SDS011;61787;42.022;23.078;2023-04-01T03:52:31;7.33;;;3.00;;
20014;SDS011;61787;42.022;23.078;2023-04-01T03:53:33;7.00;;;3.50;;
20014;SDS011;61787;42.022;23.078;2023-04-01T03:54:34;7.73;;;3.00;;
20014;SDS011;61787;42.022;23.078;2023-04-01T03:55:36;6.17;;;3.03;;
20014;SDS011;61787;42.022;23.078;2023-04-01T03:56:38;5.20;;;3.40;;
20014;SDS011;61787;42.022;23.078;2023-04-01T03:57:40;9.30;;;3.30;;
20014;SDS011;61787;42.022;23.078;2023-04-01T03:58:41;6.63;;;2.90;;
20014;SDS011;61787;42.022;23.078;2023-04-01T03:59:43;6.63;;;2.90;;
20014;SDS011;61787;42.022;23.078;2023-04-01T04:00:45;7.73;;;3.27;;
20014;SDS011;61787;42.022;23.078;2023-04-01T04:01:47;6.47;;;3.23;;
20014;SDS011;61787;42.022;23.078;2023-04-01T04:02:49;7.43;;;3.40;;
20014;SDS011;61787;42.022;23.078;2023-04-01T04:03:50;9.23;;;2.70;;
20014;SDS011;61787;42.022;23.078;2023-04-01T04:04:52;8.97;;;3.30;;
20014;SDS011;61787;42.022;23.078;2023-04-01T04:05:54;7.03;;;3.03;;
20014;SDS011;61787;42.022;23.078;2023-04-01T04:06:57;4.67;;;2.87;;
20014;SDS011;61787;42.022;23.078;2023-04-01T04:07:59;9.10;;;4.00;;
20014;SDS011;61787;42.022;23.078;2023-04-01T04:09:00;7.20;;;3.10;;
20014;SDS011;61787;42.022;23.078;2023-04-01T04:10:02;6.90;;;3.23;;
20014;SDS011;61787;42.022;23.078;2023-04-01T04:11:04;9.97;;;3.77;;
20014;SDS011;61787;42.022;23.078;2023-04-01T04:12:06;8.37;;;3.40;;
20014;SDS011;61787;42.022;23.078;2023-04-01T04:13:07;6.53;;;3.23;;
20014;SDS011;61787;42.022;23.078;2023-04-01T04:14:09;7.30;;;3.47;;
20014;SDS011;61787;42.022;23.078;2023-04-01T04:15:11;9.83;;;4.23;;
20014;SDS011;61787;42.022;23.078;2023-04-01T04:16:13;6.83;;;3.60;;
20014;SDS011;61787;42.022;23.078;2023-04-01T04:17:16;8.60;;;3.87;;
20014;SDS011;61787;42.022;23.078;2023-04-01T04:18:17;8.20;;;3.23;;
20014;SDS011;61787;42.022;23.078;2023-04-01T04:19:19;12.43;;;3.90;;
20014;SDS011;61787;42.022;23.078;2023-04-01T04:20:20;9.10;;;3.87;;
20014;SDS011;61787;42.022;23.078;2023-04-01T04:21:22;6.73;;;3.30;;
20014;SDS011;61787;42.022;23.078;2023-04-01T04:22:24;6.40;;;3.47;;
20014;SDS011;61787;42.022;23.078;2023-04-01T04:23:25;10.13;;;3.80;;
20014;SDS011;61787;42.022;23.078;2023-04-01T04:24:28;7.97;;;3.33;;
20014;SDS011;61787;42.022;23.078;2023-04-01T04:25:30;5.67;;;2.87;;
20014;SDS011;61787;42.022;23.078;2023-04-01T04:26:32;7.70;;;3.07;;
20014;SDS011;61787;42.022;23.078;2023-04-01T04:27:33;6.30;;;3.13;;
20014;SDS011;61787;42.022;23.078;2023-04-01T04:28:35;7.00;;;2.93;;
20014;SDS011;61787;42.022;23.078;2023-04-01T04:29:36;6.10;;;3.57;;
20014;SDS011;61787;42.022;23.078;2023-04-01T04:30:38;6.67;;;2.73;;
20014;SDS011;61787;42.022;23.078;2023-04-01T04:31:39;10.17;;;3.00;;
20014;SDS011;61787;42.022;23.078;2023-04-01T04:32:41;5.53;;;2.80;;
20014;SDS011;61787;42.022;23.078;2023-04-01T04:33:43;6.43;;;3.47;;
20014;SDS011;61787;42.022;23.078;2023-04-01T04:34:44;8.90;;;3.53;;
20014;SDS011;61787;42.022;23.078;2023-04-01T04:35:46;6.40;;;3.00;;
20014;SDS011;61787;42.022;23.078;2023-04-01T04:36:48;6.73;;;3.10;;
20014;SDS011;61787;42.022;23.078;2023-04-01T04:37:49;9.30;;;3.73;;
20014;SDS011;61787;42.022;23.078;2023-04-01T04:38:51;9.13;;;3.73;;
20014;SDS011;61787;42.022;23.078;2023-04-01T04:39:52;8.23;;;3.83;;
20014;SDS011;61787;42.022;23.078;2023-04-01T04:40:54;8.80;;;3.83;;
20014;SDS011;61787;42.022;23.078;2023-04-01T04:41:56;6.70;;;3.17;;
20014;SDS011;61787;42.022;23.078;2023-04-01T04:42:58;5.37;;;3.27;;
20014;SDS011;61787;42.022;23.078;2023-04-01T04:43:59;8.63;;;3.80;;
20014;SDS011;61787;42.022;23.078;2023-04-01T04:45:01;6.00;;;3.00;;
20014;SDS011;61787;42.022;23.078;2023-04-01T04:46:06;7.17;;;3.80;;
20014;SDS011;61787;42.022;23.078;2023-04-01T04:47:08;7.73;;;3.60;;
20014;SDS011;61787;42.022;23.078;2023-04-01T04:48:11;7.50;;;3.27;;
20014;SDS011;61787;42.022;23.078;2023-04-01T04:49:19;7.67;;;3.63;;
20014;SDS011;61787;42.022;23.078;2023-04-01T04:50:21;10.53;;;3.67;;
20014;SDS011;61787;42.022;23.078;2023-04-01T04:51:24;8.40;;;3.57;;
20014;SDS011;61787;42.022;23.078;2023-04-01T04:52:26;7.67;;;3.97;;
20014;SDS011;61787;42.022;23.078;2023-04-01T04:53:27;6.17;;;3.50;;
20014;SDS011;61787;42.022;23.078;2023-04-01T04:54:29;11.00;;;3.97;;
20014;SDS011;61787;42.022;23.078;2023-04-01T04:55:30;6.00;;;3.70;;
20014;SDS011;61787;42.022;23.078;2023-04-01T04:56:33;8.00;;;3.63;;
20014;SDS011;61787;42.022;23.078;2023-04-01T04:57:34;9.57;;;3.27;;
20014;SDS011;61787;42.022;23.078;2023-04-01T04:58:37;7.80;;;3.83;;
20014;SDS011;61787;42.022;23.078;2023-04-01T04:59:39;7.57;;;3.60;;
20014;SDS011;61787;42.022;23.078;2023-04-01T05:00:40;7.43;;;3.60;;
20014;SDS011;61787;42.022;23.078;2023-04-01T05:01:42;6.57;;;3.40;;
20014;SDS011;61787;42.022;23.078;2023-04-01T05:02:44;9.00;;;3.60;;
20014;SDS011;61787;42.022;23.078;2023-04-01T05:03:46;10.43;;;3.67;;
20014;SDS011;61787;42.022;23.078;2023-04-01T05:04:48;7.37;;;3.63;;
20014;SDS011;61787;42.022;23.078;2023-04-01T05:05:53;8.47;;;4.00;;
20014;SDS011;61787;42.022;23.078;2023-04-01T05:06:55;10.27;;;4.20;;
20014;SDS011;61787;42.022;23.078;2023-04-01T05:07:56;11.93;;;3.80;;
20014;SDS011;61787;42.022;23.078;2023-04-01T05:08:58;7.37;;;3.80;;
20014;SDS011;61787;42.022;23.078;2023-04-01T05:10:00;10.13;;;4.07;;
20014;SDS011;61787;42.022;23.078;2023-04-01T05:11:02;9.33;;;4.00;;
20014;SDS011;61787;42.022;23.078;2023-04-01T05:12:04;14.13;;;4.63;;
20014;SDS011;61787;42.022;23.078;2023-04-01T05:13:06;9.77;;;4.20;;
20014;SDS011;61787;42.022;23.078;2023-04-01T05:14:14;11.17;;;4.27;;
20014;SDS011;61787;42.022;23.078;2023-04-01T05:15:17;7.37;;;4.00;;
20014;SDS011;61787;42.022;23.078;2023-04-01T05:16:19;7.97;;;4.40;;
20014;SDS011;61787;42.022;23.078;2023-04-01T05:17:21;8.20;;;3.90;;
20014;SDS011;61787;42.022;23.078;2023-04-01T05:18:23;8.93;;;3.90;;
20014;SDS011;61787;42.022;23.078;2023-04-01T05:19:24;8.87;;;4.10;;
20014;SDS011;61787;42.022;23.078;2023-04-01T05:20:26;9.10;;;3.67;;
20014;SDS011;61787;42.022;23.078;2023-04-01T05:21:28;8.67;;;3.80;;
20014;SDS011;61787;42.022;23.078;2023-04-01T05:22:29;6.13;;;3.57;;
20014;SDS011;61787;42.022;23.078;2023-04-01T05:23:31;7.80;;;2.80;;
20014;SDS011;61787;42.022;23.078;2023-04-01T05:24:35;11.73;;;3.53;;
20014;SDS011;61787;42.022;23.078;2023-04-01T05:25:37;9.73;;;3.27;;
20014;SDS011;61787;42.022;23.078;2023-04-01T05:26:39;8.77;;;3.13;;
20014;SDS011;61787;42.022;23.078;2023-04-01T05:27:41;10.73;;;3.70;;
20014;SDS011;61787;42.022;23.078;2023-04-01T05:28:42;7.37;;;2.90;;
20014;SDS011;61787;42.022;23.078;2023-04-01T05:29:44;13.67;;;3.47;;
20014;SDS011;61787;42.022;23.078;2023-04-01T05:30:46;5.90;;;3.10;;
20014;SDS011;61787;42.022;23.078;2023-04-01T05:31:47;7.60;;;3.50;;
20014;SDS011;61787;42.022;23.078;2023-04-01T05:32:49;5.60;;;2.83;;
20014;SDS011;61787;42.022;23.078;2023-04-01T05:33:51;7.93;;;3.60;;
20014;SDS011;61787;42.022;23.078;2023-04-01T05:34:53;6.53;;;3.17;;
20014;SDS011;61787;42.022;23.078;2023-04-01T05:35:55;7.70;;;3.10;;
20014;SDS011;61787;42.022;23.078;2023-04-01T05:36:57;8.87;;;2.90;;
20014;SDS011;61787;42.022;23.078;2023-04-01T05:37:58;7.50;;;3.30;;
20014;SDS011;61787;42.022;23.078;2023-04-01T05:39:00;11.77;;;3.50;;
20014;SDS011;61787;42.022;23.078;2023-04-01T05:40:02;6.07;;;2.83;;
20014;SDS011;61787;42.022;23.078;2023-04-01T05:41:05;10.30;;;3.43;;
20014;SDS011;61787;42.022;23.078;2023-04-01T05:42:07;8.53;;;3.17;;
20014;SDS011;61787;42.022;23.078;2023-04-01T05:43:08;8.10;;;3.40;;
20014;SDS011;61787;42.022;23.078;2023-04-01T05:44:11;9.00;;;3.60;;
20014;SDS011;61787;42.022;23.078;2023-04-01T05:45:13;6.33;;;3.70;;
20014;SDS011;61787;42.022;23.078;2023-04-01T05:46:17;8.33;;;3.63;;
20014;SDS011;61787;42.022;23.078;2023-04-01T05:47:18;6.97;;;3.40;;
20014;SDS011;61787;42.022;23.078;2023-04-01T05:48:20;6.13;;;3.30;;
20014;SDS011;61787;42.022;23.078;2023-04-01T05:49:21;10.50;;;3.90;;
20014;SDS011;61787;42.022;23.078;2023-04-01T05:50:23;9.43;;;3.40;;
20014;SDS011;61787;42.022;23.078;2023-04-01T05:51:25;9.53;;;3.33;;
20014;SDS011;61787;42.022;23.078;2023-04-01T05:52:26;6.77;;;3.10;;
20014;SDS011;61787;42.022;23.078;2023-04-01T05:53:28;8.07;;;3.20;;
20014;SDS011;61787;42.022;23.078;2023-04-01T05:54:29;6.80;;;3.50;;
20014;SDS011;61787;42.022;23.078;2023-04-01T05:55:31;7.97;;;3.23;;
20014;SDS011;61787;42.022;23.078;2023-04-01T05:56:33;5.63;;;3.07;;
20014;SDS011;61787;42.022;23.078;2023-04-01T05:57:34;7.30;;;3.30;;
20014;SDS011;61787;42.022;23.078;2023-04-01T05:58:36;6.03;;;2.97;;
20014;SDS011;61787;42.022;23.078;2023-04-01T05:59:38;7.33;;;2.87;;
20014;SDS011;61787;42.022;23.078;2023-04-01T06:00:40;7.00;;;2.97;;
20014;SDS011;61787;42.022;23.078;2023-04-01T06:01:42;7.87;;;3.07;;
20014;SDS011;61787;42.022;23.078;2023-04-01T06:02:44;8.43;;;2.90;;
20014;SDS011;61787;42.022;23.078;2023-04-01T06:03:45;8.43;;;2.90;;
20014;SDS011;61787;42.022;23.078;2023-04-01T06:04:47;10.00;;;3.23;;
20014;SDS011;61787;42.022;23.078;2023-04-01T06:05:49;7.30;;;3.10;;
20014;SDS011;61787;42.022;23.078;2023-04-01T06:06:51;6.43;;;3.10;;
20014;SDS011;61787;42.022;23.078;2023-04-01T06:07:55;8.77;;;2.70;;
20014;SDS011;61787;42.022;23.078;2023-04-01T06:09:13;8.57;;;2.87;;
20014;SDS011;61787;42.022;23.078;2023-04-01T06:10:19;9.20;;;3.60;;
20014;SDS011;61787;42.022;23.078;2023-04-01T06:11:40;7.10;;;3.20;;
20014;SDS011;61787;42.022;23.078;2023-04-01T06:15:28;8.43;;;3.40;;
20014;SDS011;61787;42.022;23.078;2023-04-01T06:16:42;7.10;;;2.93;;
20014;SDS011;61787;42.022;23.078;2023-04-01T06:19:20;7.90;;;2.80;;
20014;SDS011;61787;42.022;23.078;2023-04-01T06:23:18;8.23;;;3.20;;
20014;SDS011;61787;42.022;23.078;2023-04-01T06:26:45;4.37;;;2.27;;
20014;SDS011;61787;42.022;23.078;2023-04-01T06:29:34;6.10;;;2.80;;
20014;SDS011;61787;42.022;23.078;2023-04-01T06:34:38;8.50;;;3.27;;
20014;SDS011;61787;42.022;23.078;2023-04-01T06:36:02;5.73;;;2.40;;
20014;SDS011;61787;42.022;23.078;2023-04-01T06:50:30;6.30;;;2.30;;
20014;SDS011;61787;42.022;23.078;2023-04-01T06:51:55;8.00;;;2.63;;
20014;SDS011;61787;42.022;23.078;2023-04-01T06:53:12;6.23;;;2.70;;
20014;SDS011;61787;42.022;23.078;2023-04-01T06:54:31;5.87;;;2.60;;
20014;SDS011;61787;42.022;23.078;2023-04-01T06:55:38;7.77;;;2.60;;
20014;SDS011;61787;42.022;23.078;2023-04-01T06:56:44;5.67;;;2.60;;
20014;SDS011;61787;42.022;23.078;2023-04-01T06:57:52;7.43;;;2.93;;
20014;SDS011;61787;42.022;23.078;2023-04-01T07:00:00;5.87;;;2.37;;
20014;SDS011;61787;42.022;23.078;2023-04-01T07:01:06;6.47;;;2.87;;
20014;SDS011;61787;42.022;23.078;2023-04-01T07:04:32;10.80;;;3.10;;
20014;SDS011;61787;42.022;23.078;2023-04-01T07:05:36;9.80;;;2.70;;
20014;SDS011;61787;42.022;23.078;2023-04-01T07:06:47;10.23;;;3.00;;
20014;SDS011;61787;42.022;23.078;2023-04-01T07:07:53;10.67;;;2.80;;
20014;SDS011;61787;42.022;23.078;2023-04-01T07:08:59;8.80;;;3.10;;
20014;SDS011;61787;42.022;23.078;2023-04-01T07:10:16;7.33;;;3.23;;